Time;durP1;ratioP1;P1;durP2;ratioP2;P2;SDS_P1;SDS_P2;PMS_P1;PMS_P2;Temp;Humidity;BMP_temperature;BMP_pressure;BME280_temperature;BME280_humidity;BME280_pressure;Samples;Min_cycle;Max_cycle;Signal;HPM_P1;HPM_P2
2023/05/31 00:01:37;;;;;;;15.60;7.65;;;;;;;15.17;66.54;99699.50;6215260;23;20004;-81
2023/05/31 00:04:02;;;;;;;11.45;6.82;;;;;;;15.20;66.60;99696.28;6239642;23;20058;-81
2023/05/31 00:06:28;;;;;;;17.20;8.15;;;;;;;15.09;66.69;99702.66;6213564;23;20034;-81
2023/05/31 00:08:53;;;;;;;12.23;8.95;;;;;;;15.19;66.56;99702.72;6212197;23;20034;-81
2023/05/31 00:11:19;;;;;;;18.65;9.40;;;;;;;15.09;66.91;99691.91;6240369;22;20082;-81
2023/05/31 00:13:45;;;;;;;13.45;8.07;;;;;;;15.12;66.64;99700.25;6191233;23;20012;-82
2023/05/31 00:16:10;;;;;;;10.00;6.70;;;;;;;15.03;66.58;99704.47;6264453;22;20011;-82
2023/05/31 00:18:36;;;;;;;16.23;8.10;;;;;;;15.07;66.47;99702.09;6240426;22;20138;-81
2023/05/31 00:21:01;;;;;;;11.75;7.45;;;;;;;15.08;66.53;99698.34;6242488;22;20008;-81
2023/05/31 00:23:27;;;;;;;11.75;7.75;;;;;;;14.99;66.66;99693.44;6241584;23;20011;-81
2023/05/31 00:25:52;;;;;;;10.55;7.22;;;;;;;15.01;66.54;99691.31;6240032;23;20008;-81
2023/05/31 00:28:17;;;;;;;10.07;7.45;;;;;;;15.09;66.80;99694.59;6212655;23;20062;-81
2023/05/31 00:30:43;;;;;;;14.30;8.15;;;;;;;14.94;66.62;99706.00;6240117;23;20004;-82
2023/05/31 00:33:08;;;;;;;12.05;7.43;;;;;;;14.91;66.88;99695.78;6240758;23;20008;-81
2023/05/31 00:35:34;;;;;;;11.00;7.03;;;;;;;15.02;66.96;99692.94;6240509;22;20004;-80
2023/05/31 00:38:06;;;;;;;11.07;8.48;;;;;;;14.65;67.54;99685.88;6239009;23;20016;-81
2023/05/31 00:40:32;;;;;;;15.95;8.98;;;;;;;14.80;66.86;99697.56;6242134;23;20079;-82
2023/05/31 00:42:58;;;;;;;15.32;8.65;;;;;;;14.72;67.91;99691.84;6241483;23;20000;-82
2023/05/31 00:45:24;;;;;;;11.77;7.50;;;;;;;14.60;68.10;99699.25;6215382;23;20004;-82
2023/05/31 00:47:50;;;;;;;10.90;7.07;;;;;;;14.84;67.33;99703.25;6243059;22;20016;-82
2023/05/31 00:50:15;;;;;;;12.23;7.35;;;;;;;14.81;67.20;99704.56;6242948;23;20004;-82
2023/05/31 00:52:45;;;;;;;10.18;6.63;;;;;;;14.74;67.30;99703.94;6243369;22;20053;-82
2023/05/31 00:55:11;;;;;;;12.88;7.57;;;;;;;14.71;67.17;99709.84;6241610;23;20004;-82
2023/05/31 00:57:38;;;;;;;13.32;7.78;;;;;;;14.53;68.13;99707.50;6237122;23;20048;-82
2023/05/31 01:00:07;;;;;;;10.85;7.07;;;;;;;14.35;68.54;99709.72;6240332;23;20016;-81
2023/05/31 01:02:34;;;;;;;17.70;8.13;;;;;;;14.00;70.04;99702.03;6239957;23;20127;-82
2023/05/31 01:05:01;;;;;;;15.82;7.68;;;;;;;13.54;71.62;99708.66;6216578;23;20344;-82
2023/05/31 01:07:26;;;;;;;16.08;7.43;;;;;;;14.35;68.88;99715.88;6216990;23;20012;-82
2023/05/31 01:09:53;;;;;;;12.48;7.18;;;;;;;13.82;70.58;99696.97;6217336;23;20032;-82
2023/05/31 01:12:24;;;;;;;17.45;8.70;;;;;;;14.30;69.20;99710.47;6242384;23;20460;-81
2023/05/31 01:15:09;;;;;;;13.45;7.97;;;;;;;13.74;70.77;99705.44;6237658;23;20012;-81
2023/05/31 01:18:01;;;;;;;12.45;7.20;;;;;;;13.86;70.54;99706.94;6242038;23;20009;-81
2023/05/31 01:20:32;;;;;;;12.52;7.88;;;;;;;14.04;70.08;99713.91;6243194;22;20008;-81
2023/05/31 01:23:26;;;;;;;15.30;7.55;;;;;;;13.76;70.14;99714.84;6242509;23;20062;-80
2023/05/31 01:26:12;;;;;;;11.15;7.25;;;;;;;13.94;70.34;99721.78;6242686;23;20004;-81
2023/05/31 01:28:41;;;;;;;13.23;7.78;;;;;;;13.83;70.85;99709.31;6238218;23;20008;-81
2023/05/31 01:31:08;;;;;;;13.90;7.88;;;;;;;14.27;68.89;99703.69;6240718;23;20011;-81
2023/05/31 01:33:34;;;;;;;14.52;8.32;;;;;;;14.20;68.50;99697.72;6243071;22;20010;-81
2023/05/31 01:36:00;;;;;;;11.95;7.63;;;;;;;14.12;69.40;99702.72;6191320;23;20004;-81
2023/05/31 01:38:25;;;;;;;18.45;8.98;;;;;;;14.31;68.33;99704.03;6189928;23;20012;-82
2023/05/31 01:40:52;;;;;;;11.93;7.38;;;;;;;14.37;68.41;99708.41;6216276;23;20008;-81
2023/05/31 01:43:18;;;;;;;8.93;7.13;;;;;;;14.28;68.20;99702.63;6242092;22;20008;-81
2023/05/31 01:45:44;;;;;;;10.02;7.30;;;;;;;14.27;68.54;99713.63;6241961;22;20016;-82
2023/05/31 01:48:11;;;;;;;11.15;7.68;;;;;;;14.28;67.69;99701.84;6242678;22;20355;-82
2023/05/31 01:50:36;;;;;;;13.45;6.93;;;;;;;14.33;68.16;99711.84;6242443;22;20435;-82
2023/05/31 01:53:03;;;;;;;11.00;7.25;;;;;;;14.21;68.91;99704.72;6242865;22;20314;-82
2023/05/31 01:55:29;;;;;;;10.13;7.05;;;;;;;14.25;68.51;99705.00;6215496;23;20340;-82
2023/05/31 01:57:55;;;;;;;11.75;6.88;;;;;;;14.30;68.33;99705.09;6241320;23;20008;-82
2023/05/31 02:00:22;;;;;;;15.02;7.15;;;;;;;14.26;68.52;99695.91;6241965;22;20090;-82
2023/05/31 02:02:50;;;;;;;12.45;7.05;;;;;;;14.01;68.99;99692.91;6243122;22;19999;-83
2023/05/31 02:05:15;;;;;;;9.32;6.85;;;;;;;14.10;68.59;99692.22;6240456;22;20019;-81
2023/05/31 02:07:43;;;;;;;18.70;8.65;;;;;;;13.49;70.26;99689.81;6240794;23;20503;-82
2023/05/31 02:10:09;;;;;;;14.10;7.35;;;;;;;13.56;70.55;99690.44;6216745;23;20000;-81
2023/05/31 02:12:35;;;;;;;16.08;7.78;;;;;;;13.41;70.79;99704.44;6243724;22;20012;-82
2023/05/31 02:15:01;;;;;;;14.23;7.55;;;;;;;12.54;74.20;99692.50;6242705;22;20062;-81
2023/05/31 02:17:26;;;;;;;13.15;8.32;;;;;;;12.58;73.86;99690.16;6241716;23;20012;-82
2023/05/31 02:19:55;;;;;;;14.10;8.30;;;;;;;12.12;75.91;99699.19;6240513;23;20198;-82
2023/05/31 02:22:21;;;;;;;17.45;9.52;;;;;;;12.97;72.45;99699.16;6240327;23;20738;-82
2023/05/31 02:24:47;;;;;;;15.10;9.20;;;;;;;12.29;75.06;99709.97;6241776;23;20008;-82
2023/05/31 02:27:13;;;;;;;15.93;8.75;;;;;;;13.00;72.83;99690.59;6243904;22;20008;-81
2023/05/31 02:29:39;;;;;;;17.30;8.45;;;;;;;12.98;72.39;99698.88;6216918;23;20387;-82
2023/05/31 02:32:05;;;;;;;14.48;8.32;;;;;;;13.36;70.83;99709.72;6242195;23;20004;-82
2023/05/31 02:34:30;;;;;;;13.65;7.57;;;;;;;13.69;70.30;99700.00;6240348;22;20008;-82
2023/05/31 02:36:56;;;;;;;17.08;7.68;;;;;;;13.54;70.39;99692.56;6215358;23;20488;-81
2023/05/31 02:39:21;;;;;;;12.82;7.95;;;;;;;13.42;70.59;99703.38;6240167;23;20007;-82
2023/05/31 02:41:47;;;;;;;15.63;8.48;;;;;;;13.69;69.82;99710.75;6241481;22;20046;-82
2023/05/31 02:44:15;;;;;;;18.40;7.43;;;;;;;13.69;69.89;99710.75;6240028;23;20424;-82
2023/05/31 02:46:40;;;;;;;12.20;8.05;;;;;;;13.75;69.32;99705.19;6214905;23;20107;-82
2023/05/31 02:49:08;;;;;;;17.02;7.88;;;;;;;13.82;69.01;99719.25;6241863;22;20031;-81
2023/05/31 02:51:34;;;;;;;13.07;7.93;;;;;;;13.78;68.93;99709.25;6215687;23;20012;-80
2023/05/31 02:54:00;;;;;;;11.98;7.43;;;;;;;13.69;69.08;99708.06;6214866;23;20008;-81
2023/05/31 02:56:26;;;;;;;13.32;7.43;;;;;;;13.70;69.00;99701.63;6240556;23;20062;-81
2023/05/31 02:58:52;;;;;;;15.10;7.72;;;;;;;13.81;68.78;99714.09;6213521;23;20012;-81
2023/05/31 03:01:18;;;;;;;11.20;7.05;;;;;;;13.59;69.17;99694.47;6239543;23;20020;-81
2023/05/31 03:03:43;;;;;;;13.95;7.85;;;;;;;13.56;69.37;99695.81;6239847;23;20343;-81
2023/05/31 03:06:08;;;;;;;16.92;8.20;;;;;;;13.62;69.46;99715.47;6242660;22;20037;-81
2023/05/31 03:08:34;;;;;;;14.07;8.13;;;;;;;13.68;68.92;99709.09;6239044;23;20028;-82
2023/05/31 03:10:59;;;;;;;11.30;6.72;;;;;;;13.54;68.84;99696.03;6241582;22;20372;-81
2023/05/31 03:13:25;;;;;;;13.70;7.72;;;;;;;13.52;69.25;99706.19;6212286;23;20008;-81
2023/05/31 03:15:50;;;;;;;15.65;7.50;;;;;;;13.49;69.27;99706.72;6238668;22;20015;-81
2023/05/31 03:18:15;;;;;;;9.93;7.40;;;;;;;13.43;69.59;99706.88;6236979;23;20035;-81
2023/05/31 03:20:41;;;;;;;14.98;8.13;;;;;;;13.45;69.27;99702.09;6212057;23;20031;-81
2023/05/31 03:23:07;;;;;;;15.02;9.00;;;;;;;13.38;68.98;99707.63;6239228;23;20004;-81
2023/05/31 03:25:33;;;;;;;18.23;8.30;;;;;;;13.40;69.42;99713.53;6189814;23;20621;-81
2023/05/31 03:27:58;;;;;;;11.63;7.50;;;;;;;13.33;69.36;99710.22;6240513;23;20008;-81
2023/05/31 03:30:23;;;;;;;13.43;6.93;;;;;;;13.46;69.18;99709.06;6238580;23;20012;-81
2023/05/31 03:32:49;;;;;;;16.08;8.40;;;;;;;13.32;68.99;99707.78;6216276;23;20008;-81
2023/05/31 03:35:17;;;;;;;14.88;7.47;;;;;;;13.07;69.31;99673.34;6240106;23;20066;-81
2023/05/31 03:37:43;;;;;;;13.43;8.05;;;;;;;13.39;68.96;99711.91;6240762;23;20035;-81
2023/05/31 03:40:09;;;;;;;11.52;7.30;;;;;;;13.28;69.11;99702.09;6243159;22;20008;-81
2023/05/31 03:42:34;;;;;;;13.80;8.77;;;;;;;13.23;69.13;99698.53;6241413;22;20083;-81
2023/05/31 03:45:00;;;;;;;10.68;7.45;;;;;;;13.24;69.21;99702.81;6241204;22;20123;-81
2023/05/31 03:47:26;;;;;;;18.90;10.13;;;;;;;13.32;69.60;99702.44;6241306;23;20081;-81
2023/05/31 03:49:51;;;;;;;16.98;7.38;;;;;;;13.30;69.89;99710.69;6241926;23;20054;-81
2023/05/31 03:52:17;;;;;;;11.63;7.47;;;;;;;13.31;69.39;99712.34;6213558;23;20058;-81
2023/05/31 03:54:42;;;;;;;13.80;7.78;;;;;;;13.31;69.68;99709.66;6239532;23;20447;-81
2023/05/31 03:57:08;;;;;;;16.40;8.20;;;;;;;13.34;69.59;99706.50;6237872;23;20016;-81
2023/05/31 03:59:35;;;;;;;19.35;8.45;;;;;;;13.28;69.74;99703.97;6239883;23;20384;-81
2023/05/31 04:02:00;;;;;;;16.40;8.13;;;;;;;13.33;70.05;99707.53;6239490;23;20053;-81
2023/05/31 04:04:26;;;;;;;16.92;8.43;;;;;;;13.39;69.95;99721.81;6235658;23;20118;-81
2023/05/31 04:06:52;;;;;;;15.57;8.25;;;;;;;13.32;69.93;99708.56;6213063;23;20008;-81
2023/05/31 04:09:17;;;;;;;16.25;8.98;;;;;;;13.23;71.18;99725.34;6238820;23;20023;-82
2023/05/31 04:11:43;;;;;;;14.77;8.25;;;;;;;13.46;70.22;99722.47;6237236;23;20008;-82
2023/05/31 04:14:08;;;;;;;20.55;8.88;;;;;;;13.15;71.43;99723.84;6240104;23;20336;-81
2023/05/31 04:16:34;;;;;;;11.43;7.90;;;;;;;13.28;71.54;99728.09;6237260;22;20008;-80
2023/05/31 04:18:59;;;;;;;20.35;9.75;;;;;;;13.32;71.60;99721.97;6239349;22;20375;-80
2023/05/31 04:21:26;;;;;;;12.80;8.25;;;;;;;13.43;71.20;99731.81;6238046;23;20008;-80
2023/05/31 04:23:51;;;;;;;17.98;9.35;;;;;;;13.38;71.75;99726.38;6237099;23;20016;-80
2023/05/31 04:26:17;;;;;;;17.30;9.68;;;;;;;12.93;73.97;99717.56;6241256;22;20012;-80
2023/05/31 04:28:43;;;;;;;13.85;8.95;;;;;;;13.45;71.55;99731.59;6212109;23;20015;-80
2023/05/31 04:31:09;;;;;;;19.40;10.55;;;;;;;12.72;75.60;99728.97;6240959;22;20082;-80
2023/05/31 04:33:35;;;;;;;16.75;8.40;;;;;;;13.30;72.80;99728.66;6236297;23;20012;-80
2023/05/31 04:36:03;;;;;;;16.92;9.65;;;;;;;13.05;74.48;99721.03;6234599;23;20061;-79
2023/05/31 04:38:30;;;;;;;19.15;10.02;;;;;;;13.22;73.88;99721.00;6237743;23;20054;-80
2023/05/31 04:40:57;;;;;;;16.58;8.93;;;;;;;13.26;73.43;99720.28;6239758;22;20012;-80
2023/05/31 04:43:25;;;;;;;17.98;9.60;;;;;;;13.22;74.67;99718.34;6240699;22;20007;-79
2023/05/31 04:45:52;;;;;;;18.25;9.88;;;;;;;12.88;75.69;99733.56;6233336;23;20004;-81
2023/05/31 04:48:19;;;;;;;20.15;11.35;;;;;;;12.87;76.04;99734.59;6236832;22;20341;-80
2023/05/31 04:50:46;;;;;;;22.92;10.05;;;;;;;12.73;77.23;99714.53;6240152;22;20000;-81
2023/05/31 04:53:11;;;;;;;18.35;9.73;;;;;;;12.95;76.15;99726.19;6238723;22;20345;-81
2023/05/31 04:55:37;;;;;;;16.98;9.40;;;;;;;13.72;72.40;99718.28;6237343;22;20004;-80
2023/05/31 04:58:02;;;;;;;16.40;9.98;;;;;;;13.33;73.92;99720.94;6236344;22;20019;-80
2023/05/31 05:00:27;;;;;;;13.93;8.10;;;;;;;13.64;72.86;99727.56;6209737;23;20012;-81
2023/05/31 05:02:53;;;;;;;21.15;10.15;;;;;;;14.01;73.36;99736.69;6212729;23;20024;-80
2023/05/31 05:05:18;;;;;;;16.30;9.23;;;;;;;12.93;75.59;99733.63;6207549;23;20440;-80
2023/05/31 05:07:44;;;;;;;22.73;10.20;;;;;;;12.77;76.86;99734.44;6184698;23;20019;-81
2023/05/31 05:10:09;;;;;;;17.80;9.30;;;;;;;13.42;74.29;99722.16;6237426;23;20005;-80
2023/05/31 05:12:35;;;;;;;17.02;10.48;;;;;;;13.77;73.89;99734.44;6238172;22;20008;-83
2023/05/31 05:15:00;;;;;;;23.45;10.05;;;;;;;12.97;76.38;99745.53;6208031;23;20036;-81
2023/05/31 05:17:26;;;;;;;24.55;11.02;;;;;;;12.69;77.45;99737.47;6239093;23;20038;-79
2023/05/31 05:19:51;;;;;;;14.93;9.45;;;;;;;13.44;74.69;99738.00;6239852;23;20008;-81
2023/05/31 05:22:17;;;;;;;15.85;9.90;;;;;;;13.53;74.63;99734.66;6240349;23;20008;-81
2023/05/31 05:24:42;;;;;;;14.98;10.57;;;;;;;12.86;77.00;99749.06;6241837;23;20073;-82
2023/05/31 05:27:08;;;;;;;21.23;10.63;;;;;;;12.76;77.47;99738.16;6241423;23;20309;-80
2023/05/31 05:29:33;;;;;;;17.70;9.80;;;;;;;12.87;77.15;99739.97;6215537;23;20011;-80
2023/05/31 05:31:59;;;;;;;15.50;10.30;;;;;;;12.54;78.51;99746.06;6241586;22;20012;-80
2023/05/31 05:34:24;;;;;;;23.25;12.13;;;;;;;12.33;79.05;99748.56;6241311;23;20042;-80
2023/05/31 05:36:51;;;;;;;24.63;10.90;;;;;;;12.68;78.98;99742.06;6241521;23;20008;-81
2023/05/31 05:39:17;;;;;;;17.45;7.93;;;;;;;13.35;75.75;99736.78;6241872;23;20035;-80
2023/05/31 05:41:42;;;;;;;24.33;9.15;;;;;;;13.24;75.42;99741.16;6211939;23;20012;-80
2023/05/31 05:44:07;;;;;;;18.90;11.07;;;;;;;12.74;77.67;99740.25;6240812;23;20114;-80
2023/05/31 05:46:33;;;;;;;16.50;8.05;;;;;;;13.78;73.98;99747.63;6243120;23;20008;-80
2023/05/31 05:48:58;;;;;;;14.13;9.18;;;;;;;13.74;74.30;99746.47;6243043;23;20011;-80
2023/05/31 05:51:23;;;;;;;20.10;11.75;;;;;;;13.48;74.77;99739.94;6244544;23;20008;-80
2023/05/31 05:53:49;;;;;;;18.63;11.07;;;;;;;13.78;74.69;99742.25;6240999;23;20061;-80
2023/05/31 05:56:17;;;;;;;17.63;10.25;;;;;;;13.82;73.96;99740.72;6241625;23;20012;-80
2023/05/31 05:58:43;;;;;;;24.20;11.65;;;;;;;13.57;75.79;99747.56;6241010;23;20019;-80
2023/05/31 06:01:09;;;;;;;18.88;8.57;;;;;;;14.04;72.76;99740.75;6240189;22;20008;-80
2023/05/31 06:03:35;;;;;;;21.90;10.40;;;;;;;13.57;75.58;99752.94;6244436;22;20018;-80
2023/05/31 06:06:00;;;;;;;18.63;10.40;;;;;;;13.55;75.12;99753.19;6215163;23;20012;-80
2023/05/31 06:08:25;;;;;;;16.05;8.63;;;;;;;13.89;74.30;99752.06;6240836;22;20012;-80
2023/05/31 06:10:50;;;;;;;21.55;9.23;;;;;;;13.83;75.61;99755.75;6215713;23;20039;-81
2023/05/31 06:13:16;;;;;;;19.75;9.85;;;;;;;13.48;74.84;99742.63;6241059;23;20340;-81
2023/05/31 06:15:41;;;;;;;19.02;9.77;;;;;;;13.15;75.17;99742.63;6240761;23;20008;-80
2023/05/31 06:18:08;;;;;;;21.45;10.30;;;;;;;13.19;75.60;99741.06;6242869;22;20018;-81
2023/05/31 06:20:33;;;;;;;21.40;10.05;;;;;;;13.25;76.90;99752.72;6243221;23;20012;-81
2023/05/31 06:22:59;;;;;;;22.88;10.38;;;;;;;13.54;75.36;99755.03;6244199;22;20095;-80
2023/05/31 06:25:24;;;;;;;19.70;10.25;;;;;;;13.70;75.60;99763.31;6216396;23;20008;-81
2023/05/31 06:27:50;;;;;;;11.35;7.35;;;;;;;14.88;70.72;99756.25;6240808;22;20012;-81
2023/05/31 06:30:16;;;;;;;19.33;9.55;;;;;;;14.18;73.94;99766.13;6239075;23;20008;-81
2023/05/31 06:32:41;;;;;;;16.95;10.15;;;;;;;13.70;75.02;99755.28;6215451;23;20108;-80
2023/05/31 06:35:07;;;;;;;22.75;11.00;;;;;;;13.73;75.28;99747.56;6234754;23;20038;-81
2023/05/31 06:37:33;;;;;;;21.02;10.32;;;;;;;13.81;75.55;99744.44;6215791;23;20012;-81
2023/05/31 06:39:59;;;;;;;14.98;8.25;;;;;;;14.24;74.20;99759.81;6240002;23;20008;-80
2023/05/31 06:42:24;;;;;;;17.23;9.70;;;;;;;14.06;74.67;99760.09;6211332;23;20027;-80
2023/05/31 06:44:50;;;;;;;18.65;9.13;;;;;;;14.06;74.23;99758.22;6239613;22;20015;-81
2023/05/31 06:47:16;;;;;;;17.77;9.43;;;;;;;14.07;73.67;99757.16;6238835;23;20474;-80
2023/05/31 06:49:42;;;;;;;16.25;9.18;;;;;;;13.88;72.80;99755.00;6240545;22;20004;-80
2023/05/31 06:52:08;;;;;;;14.98;8.05;;;;;;;13.76;73.38;99754.31;6237413;23;20019;-81
2023/05/31 06:54:36;;;;;;;14.27;7.53;;;;;;;14.20;71.94;99750.59;6238958;23;20012;-80
2023/05/31 06:57:04;;;;;;;17.27;8.85;;;;;;;14.32;73.23;99754.00;6239637;23;20015;-80
2023/05/31 06:59:29;;;;;;;19.83;9.48;;;;;;;14.47;72.48;99753.38;6241651;23;20012;-81
2023/05/31 07:01:55;;;;;;;15.07;8.98;;;;;;;14.57;73.05;99751.59;6240992;23;20015;-81
2023/05/31 07:04:21;;;;;;;14.23;6.40;;;;;;;15.20;70.92;99748.19;6239843;22;20441;-80
2023/05/31 07:06:46;;;;;;;13.52;8.70;;;;;;;15.10;71.66;99752.66;6239308;23;20008;-81
2023/05/31 07:09:12;;;;;;;13.27;7.95;;;;;;;14.47;72.29;99751.50;6214008;23;20014;-81
2023/05/31 07:11:41;;;;;;;21.88;7.90;;;;;;;15.18;70.62;99753.00;6239862;23;20003;-80
2023/05/31 07:14:06;;;;;;;14.35;9.02;;;;;;;14.64;71.98;99752.22;6237605;23;20031;-80
2023/05/31 07:16:32;;;;;;;15.27;8.93;;;;;;;14.70;72.74;99728.91;6240349;22;20012;-81
2023/05/31 07:18:57;;;;;;;14.05;7.38;;;;;;;15.16;71.52;99748.97;6188777;23;20079;-81
2023/05/31 07:21:23;;;;;;;8.00;5.88;;;;;;;15.41;70.84;99747.28;6215596;23;20012;-80
2023/05/31 07:23:48;;;;;;;14.52;8.02;;;;;;;15.37;70.88;99740.81;6241467;22;20067;-80
2023/05/31 07:26:15;;;;;;;16.88;8.75;;;;;;;15.13;70.60;99744.91;6240352;23;20008;-80
2023/05/31 07:28:42;;;;;;;13.20;6.95;;;;;;;15.52;69.70;99735.56;6214026;23;20004;-81
2023/05/31 07:31:07;;;;;;;18.38;7.18;;;;;;;15.66;68.53;99738.63;6241961;22;20004;-81
2023/05/31 07:33:32;;;;;;;17.67;7.55;;;;;;;15.66;69.44;99744.00;6241515;22;20062;-81
2023/05/31 07:35:59;;;;;;;13.13;6.82;;;;;;;15.75;69.80;99737.03;6237694;23;20008;-82
2023/05/31 07:38:25;;;;;;;19.70;7.70;;;;;;;16.37;69.33;99729.81;6240488;22;20035;-81
2023/05/31 07:40:50;;;;;;;13.88;5.95;;;;;;;17.11;65.10;99719.47;6238354;23;20004;-81
2023/05/31 07:43:16;;;;;;;10.20;5.85;;;;;;;17.54;63.71;99718.13;6241770;22;20049;-81
2023/05/31 07:45:41;;;;;;;12.43;6.40;;;;;;;16.84;65.76;99727.00;6214320;23;20008;-80
2023/05/31 07:48:07;;;;;;;12.77;6.05;;;;;;;16.58;67.05;99727.22;6240114;23;20202;-81
2023/05/31 07:50:32;;;;;;;20.20;7.05;;;;;;;16.45;69.21;99728.47;6213916;23;20013;-81
2023/05/31 07:52:58;;;;;;;11.60;6.53;;;;;;;16.70;66.58;99727.78;6215360;23;20012;-81
2023/05/31 07:55:23;;;;;;;17.10;7.15;;;;;;;15.65;66.48;99724.34;6239407;23;20004;-81
2023/05/31 07:57:49;;;;;;;9.60;5.80;;;;;;;16.15;68.12;99718.41;6239792;23;20008;-81
2023/05/31 08:00:14;;;;;;;14.43;6.63;;;;;;;16.17;66.78;99715.44;6237538;23;20019;-80
2023/05/31 08:02:41;;;;;;;15.07;5.72;;;;;;;16.34;66.10;99716.88;6238536;23;20042;-81
2023/05/31 08:05:07;;;;;;;10.68;5.90;;;;;;;16.73;67.15;99711.09;6241649;22;20004;-80
2023/05/31 08:07:33;;;;;;;7.78;4.85;;;;;;;17.08;65.65;99697.63;6239752;23;20008;-81
2023/05/31 08:09:58;;;;;;;12.70;6.63;;;;;;;17.46;66.84;99704.34;6236364;23;20691;-80
2023/05/31 08:12:23;;;;;;;14.23;6.38;;;;;;;17.08;67.96;99705.72;6239538;22;20007;-81
2023/05/31 08:14:49;;;;;;;11.82;5.70;;;;;;;17.08;65.45;99695.72;6238851;22;20015;-81
2023/05/31 08:17:14;;;;;;;10.70;5.20;;;;;;;16.86;63.61;99689.00;6237995;23;20062;-80
2023/05/31 08:19:40;;;;;;;16.40;5.18;;;;;;;16.71;63.40;99702.44;6240440;22;20085;-81
2023/05/31 08:22:05;;;;;;;9.20;5.05;;;;;;;16.99;64.41;99691.94;6214089;23;20012;-81
2023/05/31 08:24:30;;;;;;;12.32;5.30;;;;;;;16.77;62.13;99691.41;6240957;23;20011;-81
2023/05/31 08:26:58;;;;;;;9.43;5.32;;;;;;;17.10;64.18;99692.78;6242001;22;20399;-81
2023/05/31 08:29:23;;;;;;;7.60;4.40;;;;;;;17.42;62.58;99698.69;6239990;22;20247;-81
2023/05/31 08:31:48;;;;;;;10.43;5.45;;;;;;;17.61;64.63;99705.16;6240430;23;20004;-81
2023/05/31 08:34:14;;;;;;;11.32;4.68;;;;;;;17.48;62.12;99692.19;6239471;23;20467;-81
2023/05/31 08:36:40;;;;;;;7.38;4.22;;;;;;;18.05;62.91;99696.38;6213448;23;20019;-81
2023/05/31 08:39:07;;;;;;;8.80;4.70;;;;;;;17.82;60.34;99693.22;6213483;23;20004;-81
2023/05/31 08:41:42;;;;;;;12.43;5.07;;;;;;;17.93;62.32;99688.59;6234839;23;20031;-81
2023/05/31 08:44:09;;;;;;;12.55;5.07;;;;;;;17.77;62.16;99687.84;6237470;22;20008;-81
2023/05/31 08:46:35;;;;;;;14.98;5.13;;;;;;;17.94;60.43;99682.91;6238393;23;20099;-81
2023/05/31 08:49:11;;;;;;;9.38;4.63;;;;;;;18.02;60.68;99680.75;6239050;23;20022;-81
2023/05/31 08:51:40;;;;;;;9.68;5.15;;;;;;;17.89;61.58;99680.22;6238303;23;20004;-81
2023/05/31 08:54:06;;;;;;;9.02;4.25;;;;;;;17.90;61.54;99673.75;6233268;23;20442;-81
2023/05/31 08:56:33;;;;;;;6.88;4.28;;;;;;;17.89;59.04;99682.09;6235290;23;20000;-81
2023/05/31 08:58:58;;;;;;;9.57;5.00;;;;;;;17.82;57.03;99682.41;6214017;23;20005;-81
2023/05/31 09:01:25;;;;;;;7.63;4.55;;;;;;;18.34;59.70;99673.81;6241050;22;20015;-80
2023/05/31 09:03:53;;;;;;;8.68;4.13;;;;;;;18.07;58.12;99675.28;6240617;23;20012;-81
2023/05/31 09:06:18;;;;;;;11.10;3.92;;;;;;;17.99;57.06;99671.28;6190316;23;20028;-81
2023/05/31 09:08:44;;;;;;;11.13;4.63;;;;;;;18.27;58.13;99676.03;6241213;22;20007;-80
2023/05/31 09:11:12;;;;;;;8.35;3.88;;;;;;;18.08;57.74;99664.22;6240839;23;20014;-81
2023/05/31 09:13:37;;;;;;;14.38;3.90;;;;;;;18.50;58.31;99652.94;6237972;23;20015;-81
2023/05/31 09:16:03;;;;;;;6.88;3.47;;;;;;;18.55;55.60;99658.31;6215702;23;20352;-81
2023/05/31 09:18:36;;;;;;;11.15;4.32;;;;;;;18.71;55.68;99659.81;6239402;23;20083;-81
2023/05/31 09:21:08;;;;;;;11.35;4.38;;;;;;;18.53;55.41;99653.19;6242977;22;20008;-81
2023/05/31 09:23:34;;;;;;;7.03;3.85;;;;;;;18.74;57.46;99661.94;6239872;22;20057;-81
2023/05/31 09:25:59;;;;;;;6.28;3.65;;;;;;;18.71;56.05;99654.41;6189501;23;20119;-81
2023/05/31 09:28:25;;;;;;;10.10;3.60;;;;;;;19.02;53.17;99644.16;6242150;22;20090;-81
2023/05/31 09:31:05;;;;;;;5.25;2.83;;;;;;;19.45;54.56;99656.78;6191199;23;20016;-81
2023/05/31 09:33:45;;;;;;;7.72;3.10;;;;;;;19.57;55.73;99653.69;6240483;23;20078;-81
2023/05/31 09:36:11;;;;;;;5.13;2.90;;;;;;;19.52;51.53;99642.91;6242172;23;20008;-81
2023/05/31 09:38:37;;;;;;;6.53;3.33;;;;;;;19.36;52.61;99653.88;6240853;23;20061;-81
2023/05/31 09:41:13;;;;;;;9.65;4.43;;;;;;;19.12;51.38;99642.19;6241912;22;20012;-81
2023/05/31 09:43:50;;;;;;;5.57;2.85;;;;;;;19.59;51.51;99643.38;6239454;23;20023;-81
2023/05/31 09:46:20;;;;;;;5.55;2.85;;;;;;;19.61;49.72;99646.59;6240912;23;20008;-81
2023/05/31 09:49:00;;;;;;;6.80;3.72;;;;;;;19.81;51.61;99632.81;6241487;22;20007;-82
2023/05/31 09:51:27;;;;;;;9.40;3.80;;;;;;;19.53;49.76;99633.69;6215742;23;20062;-81
2023/05/31 09:53:57;;;;;;;5.38;3.22;;;;;;;19.41;50.70;99624.06;6214896;23;20525;-82
2023/05/31 09:56:23;;;;;;;8.20;3.00;;;;;;;19.58;51.00;99637.13;6240539;23;20004;-81
2023/05/31 09:58:50;;;;;;;6.75;2.50;;;;;;;19.65;50.35;99639.50;6239374;23;20364;-81
2023/05/31 10:01:17;;;;;;;8.18;3.17;;;;;;;19.82;51.35;99629.00;6213883;23;20008;-81
2023/05/31 10:03:43;;;;;;;10.88;3.70;;;;;;;19.75;52.15;99625.81;6241705;23;20008;-81
2023/05/31 10:06:10;;;;;;;4.32;2.85;;;;;;;19.90;49.50;99610.19;6240545;23;20043;-81
2023/05/31 10:08:37;;;;;;;6.88;3.22;;;;;;;19.96;49.49;99629.91;6240143;22;20000;-81
2023/05/31 10:11:03;;;;;;;10.18;3.47;;;;;;;20.03;51.01;99633.88;6242382;23;20000;-81
2023/05/31 10:13:30;;;;;;;5.18;3.50;;;;;;;20.36;51.66;99609.59;6238047;23;20182;-81
2023/05/31 10:16:04;;;;;;;6.18;3.10;;;;;;;21.38;53.47;99621.22;6239070;22;20430;-81
2023/05/31 10:18:32;;;;;;;8.70;4.47;;;;;;;21.56;49.82;99617.59;6238634;23;20004;-81
2023/05/31 10:21:02;;;;;;;3.83;3.30;;;;;;;21.13;53.50;99610.81;6215601;23;20008;-81
2023/05/31 10:23:29;;;;;;;7.40;3.13;;;;;;;20.97;50.83;99612.16;6243083;22;20054;-81
2023/05/31 10:25:56;;;;;;;7.97;3.30;;;;;;;21.96;52.43;99605.13;6242146;23;20050;-81
2023/05/31 10:28:27;;;;;;;4.40;2.92;;;;;;;22.13;49.83;99616.19;6241792;22;20015;-82
2023/05/31 10:30:53;;;;;;;6.63;3.40;;;;;;;21.33;50.67;99610.44;6242435;22;20011;-81
2023/05/31 10:33:20;;;;;;;8.55;4.07;;;;;;;21.32;52.24;99603.41;6240268;23;20008;-81
2023/05/31 10:35:46;;;;;;;10.30;4.30;;;;;;;20.90;51.15;99602.47;6242429;23;20007;-81
2023/05/31 10:38:12;;;;;;;6.03;3.85;;;;;;;20.86;50.75;99603.38;6240241;23;20000;-81
2023/05/31 10:40:52;;;;;;;5.85;3.15;;;;;;;20.93;51.35;99593.75;6235619;23;20042;-81
2023/05/31 10:43:36;;;;;;;10.63;3.20;;;;;;;21.02;50.00;99603.91;6238683;23;20000;-81
2023/05/31 10:46:08;;;;;;;5.38;3.08;;;;;;;21.65;50.47;99603.03;6239632;23;20000;-81
2023/05/31 10:48:45;;;;;;;10.45;3.78;;;;;;;20.80;51.79;99591.81;6237086;23;20004;-81
2023/05/31 10:51:12;;;;;;;7.93;3.78;;;;;;;21.36;52.52;99569.91;6239655;23;20092;-81
2023/05/31 10:53:38;;;;;;;4.10;3.35;;;;;;;21.72;51.30;99583.59;6215115;23;20020;-81
2023/05/31 10:56:09;;;;;;;8.70;3.40;;;;;;;21.49;48.88;99593.56;6240455;23;20138;-81
2023/05/31 10:58:39;;;;;;;10.60;3.55;;;;;;;21.57;48.48;99589.34;6239262;22;20004;-81
2023/05/31 11:01:13;;;;;;;4.85;2.83;;;;;;;21.87;51.00;99582.50;6239281;22;20065;-81
2023/05/31 11:03:46;;;;;;;10.35;4.03;;;;;;;21.53;50.46;99589.16;6240424;22;20332;-81
2023/05/31 11:06:14;;;;;;;7.85;3.17;;;;;;;22.31;48.87;99569.81;6239404;23;20034;-81
2023/05/31 11:09:04;;;;;;;4.68;3.45;;;;;;;22.01;48.94;99578.66;6214512;23;20015;-81
2023/05/31 11:11:33;;;;;;;7.43;3.38;;;;;;;22.52;48.71;99572.84;6239564;23;20008;-81
2023/05/31 11:14:06;;;;;;;9.48;4.00;;;;;;;22.69;47.46;99572.22;6240762;23;20001;-81
2023/05/31 11:17:06;;;;;;;4.80;3.17;;;;;;;22.11;48.58;99564.03;6237453;23;20011;-81
2023/05/31 11:19:32;;;;;;;10.10;3.45;;;;;;;22.14;49.35;99566.13;6264717;22;20011;-81
2023/05/31 11:22:07;;;;;;;5.97;2.92;;;;;;;22.50;47.97;99556.03;6239477;23;20015;-81
2023/05/31 11:24:52;;;;;;;8.15;3.30;;;;;;;21.89;48.22;99559.34;6241039;23;20758;-81
2023/05/31 11:27:20;;;;;;;7.00;4.25;;;;;;;22.02;48.31;99558.50;6238738;23;20023;-81